Time;durP1;ratioP1;P1;durP2;ratioP2;P2;SDS_P1;SDS_P2;PMS_P1;PMS_P2;Temp;Humidity;BMP_temperature;BMP_pressure;BME280_temperature;BME280_humidity;BME280_pressure;Samples;Min_cycle;Max_cycle;Signal;HPM_P1;HPM_P2
2023/06/05 00:01:23;;;;;;;14.18;7.63;;;;;;;;;;5076692;28;20081;-77
2023/06/05 00:03:49;;;;;;;10.85;7.97;;;;;;;;;;5081704;28;20032;-76
2023/06/05 00:06:14;;;;;;;12.30;8.48;;;;;;;;;;5082855;28;20071;-76
2023/06/05 00:08:40;;;;;;;11.40;8.35;;;;;;;;;;5082678;28;20065;-76
2023/06/05 00:11:05;;;;;;;10.82;8.18;;;;;;;;;;5082333;28;20020;-75
2023/06/05 00:13:30;;;;;;;12.02;8.38;;;;;;;;;;5068171;28;20397;-76
2023/06/05 00:15:57;;;;;;;16.08;8.15;;;;;;;;;;5073959;28;20024;-75
2023/06/05 00:18:22;;;;;;;8.93;8.02;;;;;;;;;;5079930;28;20020;-75
2023/06/05 00:20:48;;;;;;;11.18;8.68;;;;;;;;;;5068313;28;20080;-76
2023/06/05 00:23:13;;;;;;;11.02;8.80;;;;;;;;;;5075471;28;20019;-76
2023/06/05 00:25:39;;;;;;;9.90;8.30;;;;;;;;;;5073299;28;20461;-76
2023/06/05 00:28:04;;;;;;;12.52;8.30;;;;;;;;;;5080416;28;20115;-78
2023/06/05 00:30:30;;;;;;;10.48;7.20;;;;;;;;;;5078229;28;20416;-76
2023/06/05 00:32:55;;;;;;;9.35;7.57;;;;;;;;;;5071477;28;20024;-76
2023/06/05 00:35:21;;;;;;;9.85;8.25;;;;;;;;;;5068752;28;20450;-76
2023/06/05 00:37:46;;;;;;;10.27;8.25;;;;;;;;;;5068230;28;20024;-76
2023/06/05 00:40:12;;;;;;;12.35;9.32;;;;;;;;;;5068587;28;20522;-75
2023/06/05 00:42:37;;;;;;;10.65;8.68;;;;;;;;;;5081922;28;20050;-75
2023/06/05 00:45:03;;;;;;;10.20;8.75;;;;;;;;;;5069175;28;20077;-76
2023/06/05 00:47:29;;;;;;;11.25;9.02;;;;;;;;;;5068578;28;20028;-75
2023/06/05 00:49:54;;;;;;;9.63;8.68;;;;;;;;;;5067607;28;20482;-75
2023/06/05 00:52:20;;;;;;;13.95;8.90;;;;;;;;;;5079759;28;20024;-74
2023/06/05 00:54:45;;;;;;;11.70;8.70;;;;;;;;;;5069373;28;20058;-76
2023/06/05 00:57:11;;;;;;;11.38;8.77;;;;;;;;;;5080637;28;20105;-75
2023/06/05 00:59:36;;;;;;;10.00;9.02;;;;;;;;;;5076087;28;20043;-77
2023/06/05 01:02:02;;;;;;;11.18;8.88;;;;;;;;;;5067136;28;20398;-73
2023/06/05 01:04:32;;;;;;;12.85;8.68;;;;;;;;;;5070880;28;20225;-75
2023/06/05 01:06:59;;;;;;;9.10;8.07;;;;;;;;;;5071920;28;20031;-75
2023/06/05 01:09:25;;;;;;;11.88;8.25;;;;;;;;;;5077219;28;20032;-75
2023/06/05 01:12:11;;;;;;;9.25;8.35;;;;;;;;;;5075831;28;20035;-76
2023/06/05 01:14:40;;;;;;;11.32;8.65;;;;;;;;;;5066908;28;20044;-75
2023/06/05 01:17:08;;;;;;;10.75;8.57;;;;;;;;;;5066109;28;20028;-75
2023/06/05 01:19:33;;;;;;;10.73;7.93;;;;;;;;;;5069143;28;20043;-75
2023/06/05 01:21:59;;;;;;;12.18;8.88;;;;;;;;;;5073008;28;20028;-77
2023/06/05 01:24:27;;;;;;;10.40;8.27;;;;;;;;;;5074717;28;20028;-74
2023/06/05 01:27:00;;;;;;;12.43;8.48;;;;;;;;;;5079424;28;20100;-75
2023/06/05 01:29:44;;;;;;;13.80;8.48;;;;;;;;;;5070696;28;20103;-75
2023/06/05 01:32:16;;;;;;;10.32;8.85;;;;;;;;;;5091964;28;20118;-75
2023/06/05 01:34:43;;;;;;;11.10;9.27;;;;;;;;;;5071786;28;20020;-74
2023/06/05 01:37:12;;;;;;;13.27;8.57;;;;;;;;;;5067434;28;20040;-75
2023/06/05 01:39:38;;;;;;;10.10;8.20;;;;;;;;;;5065404;28;20387;-75
2023/06/05 01:42:04;;;;;;;12.38;8.82;;;;;;;;;;5080572;28;20097;-74
2023/06/05 01:44:30;;;;;;;10.13;8.07;;;;;;;;;;5073803;28;20043;-75
2023/06/05 01:46:55;;;;;;;13.35;8.23;;;;;;;;;;5070367;28;20476;-73
2023/06/05 01:49:21;;;;;;;11.02;8.43;;;;;;;;;;5075766;28;20134;-74
2023/06/05 01:51:46;;;;;;;9.25;7.97;;;;;;;;;;5080103;28;20028;-74
2023/06/05 01:54:12;;;;;;;9.77;8.63;;;;;;;;;;5070847;28;20107;-74
2023/06/05 01:56:37;;;;;;;11.95;8.10;;;;;;;;;;5074221;28;20048;-75
2023/06/05 01:59:06;;;;;;;11.57;7.85;;;;;;;;;;5071519;28;20053;-77
2023/06/05 02:01:32;;;;;;;9.48;8.10;;;;;;;;;;5068595;28;20390;-74
2023/06/05 02:03:58;;;;;;;11.75;7.60;;;;;;;;;;5071057;28;20498;-76
2023/06/05 02:06:24;;;;;;;8.43;7.63;;;;;;;;;;5075044;28;20032;-75
2023/06/05 02:08:50;;;;;;;10.50;7.15;;;;;;;;;;5069491;28;20060;-73
2023/06/05 02:11:16;;;;;;;9.90;7.72;;;;;;;;;;5069691;28;20032;-74
2023/06/05 02:13:43;;;;;;;11.55;8.20;;;;;;;;;;5073723;28;20035;-75
2023/06/05 02:16:09;;;;;;;13.95;7.20;;;;;;;;;;5073790;28;20024;-75
2023/06/05 02:18:37;;;;;;;8.45;7.22;;;;;;;;;;5071836;28;20028;-75
2023/06/05 02:21:02;;;;;;;12.10;7.85;;;;;;;;;;5073796;28;20093;-76
2023/06/05 02:23:28;;;;;;;8.75;7.32;;;;;;;;;;5075137;28;20048;-75
2023/06/05 02:25:53;;;;;;;10.57;7.13;;;;;;;;;;5080221;28;20469;-76
2023/06/05 02:28:20;;;;;;;10.98;7.80;;;;;;;;;;5076957;28;20023;-76
2023/06/05 02:30:47;;;;;;;9.73;7.53;;;;;;;;;;5080406;28;20028;-75
2023/06/05 02:33:14;;;;;;;13.07;8.52;;;;;;;;;;5078128;28;20024;-76
2023/06/05 02:35:40;;;;;;;9.60;7.43;;;;;;;;;;5079494;28;20108;-77
2023/06/05 02:38:06;;;;;;;13.77;7.88;;;;;;;;;;5084354;28;20028;-74
2023/06/05 02:40:31;;;;;;;12.32;7.03;;;;;;;;;;5084008;28;20043;-73
2023/06/05 02:42:57;;;;;;;9.30;7.93;;;;;;;;;;5079561;28;20342;-74
2023/06/05 02:45:22;;;;;;;9.93;7.45;;;;;;;;;;5076285;28;20048;-74
2023/06/05 02:47:50;;;;;;;14.18;7.97;;;;;;;;;;5082205;28;20036;-74
2023/06/05 02:50:16;;;;;;;12.70;8.75;;;;;;;;;;5083453;28;20032;-74
2023/06/05 02:52:41;;;;;;;8.68;7.72;;;;;;;;;;5078905;28;20103;-74
2023/06/05 02:55:07;;;;;;;9.40;8.43;;;;;;;;;;5073521;28;20062;-75
2023/06/05 02:57:40;;;;;;;12.32;7.95;;;;;;;;;;5083631;28;20151;-76
2023/06/05 03:00:08;;;;;;;12.45;7.85;;;;;;;;;;5084076;28;20131;-75
2023/06/05 03:02:36;;;;;;;9.25;8.20;;;;;;;;;;5084081;28;20665;-76
2023/06/05 03:05:02;;;;;;;10.57;7.95;;;;;;;;;;5072653;28;20064;-77
2023/06/05 03:07:27;;;;;;;11.13;8.05;;;;;;;;;;5082804;28;20484;-75
2023/06/05 03:09:52;;;;;;;12.63;7.68;;;;;;;;;;5083057;28;20060;-76
2023/06/05 03:12:18;;;;;;;13.55;7.53;;;;;;;;;;5083797;28;20037;-76
2023/06/05 03:14:43;;;;;;;14.80;8.13;;;;;;;;;;5082281;28;20485;-75
2023/06/05 03:17:08;;;;;;;9.27;7.43;;;;;;;;;;5083264;28;20393;-75
2023/06/05 03:19:34;;;;;;;12.48;7.28;;;;;;;;;;5073257;28;20038;-76
2023/06/05 03:21:59;;;;;;;10.73;7.30;;;;;;;;;;5074154;28;20078;-75
2023/06/05 03:24:24;;;;;;;17.70;8.10;;;;;;;;;;5072862;28;20028;-77
2023/06/05 03:26:50;;;;;;;11.57;7.20;;;;;;;;;;5076677;28;20032;-75
2023/06/05 03:29:15;;;;;;;9.02;6.80;;;;;;;;;;5083167;28;21029;-76
2023/06/05 03:31:42;;;;;;;8.38;7.35;;;;;;;;;;5083330;28;20032;-76
2023/06/05 03:34:08;;;;;;;11.57;6.82;;;;;;;;;;5082659;28;20086;-76
2023/06/05 03:36:34;;;;;;;8.45;7.40;;;;;;;;;;5083436;28;20052;-77
2023/06/05 03:38:59;;;;;;;7.88;6.95;;;;;;;;;;5072595;28;20427;-77
2023/06/05 03:41:25;;;;;;;9.52;7.93;;;;;;;;;;5080582;28;20024;-76
2023/06/05 03:43:51;;;;;;;8.73;7.50;;;;;;;;;;5082843;28;20031;-76
2023/06/05 03:46:19;;;;;;;13.85;7.93;;;;;;;;;;5076755;28;20059;-77
2023/06/05 03:48:45;;;;;;;11.20;7.38;;;;;;;;;;5078229;28;20035;-76
2023/06/05 03:51:11;;;;;;;9.63;7.57;;;;;;;;;;5082913;28;20024;-76
2023/06/05 03:53:39;;;;;;;7.40;6.65;;;;;;;;;;5081994;28;20459;-76
2023/06/05 03:56:05;;;;;;;8.25;6.97;;;;;;;;;;5082536;28;20056;-75
2023/06/05 03:58:31;;;;;;;9.13;7.78;;;;;;;;;;5071285;28;20035;-75
2023/06/05 04:00:56;;;;;;;11.25;7.53;;;;;;;;;;5067819;28;20456;-77
2023/06/05 04:03:21;;;;;;;9.10;7.75;;;;;;;;;;5068856;28;20109;-77
2023/06/05 04:05:47;;;;;;;8.80;7.38;;;;;;;;;;5068611;28;20084;-77
2023/06/05 04:08:13;;;;;;;14.25;7.95;;;;;;;;;;5066787;28;20032;-76
2023/06/05 04:10:40;;;;;;;10.43;8.07;;;;;;;;;;5069370;28;20027;-76
2023/06/05 04:13:05;;;;;;;11.27;7.65;;;;;;;;;;5068292;28;20343;-77
2023/06/05 04:15:31;;;;;;;11.30;7.10;;;;;;;;;;5066525;28;20024;-77
2023/06/05 04:17:56;;;;;;;9.18;7.10;;;;;;;;;;5077626;28;20467;-77
2023/06/05 04:20:22;;;;;;;7.55;6.28;;;;;;;;;;5081023;28;20052;-76
2023/06/05 04:22:47;;;;;;;12.15;7.13;;;;;;;;;;5082729;28;20423;-77
2023/06/05 04:25:13;;;;;;;9.10;6.53;;;;;;;;;;5079248;28;20020;-77
2023/06/05 04:27:39;;;;;;;9.27;7.68;;;;;;;;;;5081173;28;20028;-77
2023/06/05 04:30:08;;;;;;;8.98;7.22;;;;;;;;;;5082017;28;20027;-77
2023/06/05 04:32:36;;;;;;;11.37;8.00;;;;;;;;;;5080512;28;20080;-76
2023/06/05 04:35:02;;;;;;;8.93;7.33;;;;;;;;;;5069911;28;20031;-77
2023/06/05 04:37:28;;;;;;;9.77;6.90;;;;;;;;;;5074128;28;20272;-76
2023/06/05 04:39:54;;;;;;;10.02;6.97;;;;;;;;;;5074178;28;20024;-76
2023/06/05 04:42:20;;;;;;;7.95;7.13;;;;;;;;;;5066195;28;20031;-75
2023/06/05 04:44:53;;;;;;;8.02;6.72;;;;;;;;;;5066523;28;20024;-77
2023/06/05 04:47:19;;;;;;;9.70;7.07;;;;;;;;;;5066407;28;20036;-75
2023/06/05 04:49:47;;;;;;;9.77;7.25;;;;;;;;;;5067243;28;20051;-76
2023/06/05 04:52:12;;;;;;;11.70;6.90;;;;;;;;;;5067888;28;20107;-76
2023/06/05 04:54:39;;;;;;;6.65;6.00;;;;;;;;;;5080314;28;20126;-76
2023/06/05 04:57:05;;;;;;;7.70;6.22;;;;;;;;;;5081012;28;20048;-75
2023/06/05 04:59:32;;;;;;;7.97;5.68;;;;;;;;;;5080390;28;20028;-76
2023/06/05 05:01:57;;;;;;;6.13;5.43;;;;;;;;;;5080703;28;20170;-75
2023/06/05 05:04:23;;;;;;;7.70;5.78;;;;;;;;;;5079956;28;20503;-77
2023/06/05 05:06:51;;;;;;;6.82;5.50;;;;;;;;;;5081041;28;20535;-76
2023/06/05 05:09:16;;;;;;;6.00;5.40;;;;;;;;;;5081317;28;20016;-76
2023/06/05 05:11:42;;;;;;;6.50;4.60;;;;;;;;;;5080932;28;20736;-77
2023/06/05 05:14:07;;;;;;;4.78;4.25;;;;;;;;;;5079679;28;20032;-76
2023/06/05 05:16:33;;;;;;;6.05;4.30;;;;;;;;;;5082015;28;20027;-76
2023/06/05 05:18:58;;;;;;;4.85;4.35;;;;;;;;;;5070798;28;20073;-75
2023/06/05 05:21:23;;;;;;;5.35;3.72;;;;;;;;;;5067744;28;20028;-75
2023/06/05 05:23:49;;;;;;;5.07;3.75;;;;;;;;;;5080257;28;20028;-75
2023/06/05 05:26:14;;;;;;;6.25;3.53;;;;;;;;;;5081218;28;20032;-75
2023/06/05 05:28:39;;;;;;;4.13;3.63;;;;;;;;;;5079932;28;20063;-75
2023/06/05 05:31:05;;;;;;;4.75;3.83;;;;;;;;;;5084311;28;20104;-76
2023/06/05 05:33:30;;;;;;;4.10;3.70;;;;;;;;;;5084595;28;20434;-76
2023/06/05 05:35:56;;;;;;;3.85;3.40;;;;;;;;;;5084152;28;20016;-77
2023/06/05 05:38:21;;;;;;;5.35;3.72;;;;;;;;;;5085552;28;20024;-78
2023/06/05 05:40:46;;;;;;;4.25;3.85;;;;;;;;;;5083956;28;20405;-77
2023/06/05 05:43:12;;;;;;;4.55;3.70;;;;;;;;;;5085054;28;20102;-78
2023/06/05 05:45:39;;;;;;;6.18;3.75;;;;;;;;;;5085011;28;20074;-77
2023/06/05 05:48:05;;;;;;;4.47;4.07;;;;;;;;;;5083925;28;20385;-77
2023/06/05 05:50:30;;;;;;;4.20;3.80;;;;;;;;;;5084359;28;20016;-75
2023/06/05 05:52:56;;;;;;;4.68;4.35;;;;;;;;;;5085038;28;20028;-77
2023/06/05 05:55:21;;;;;;;6.28;4.40;;;;;;;;;;5084388;28;20024;-76
2023/06/05 05:57:46;;;;;;;6.43;4.43;;;;;;;;;;5085531;28;20467;-77
2023/06/05 06:00:12;;;;;;;4.82;4.43;;;;;;;;;;5084839;28;21046;-77
2023/06/05 06:02:38;;;;;;;4.70;4.30;;;;;;;;;;5084504;28;20025;-76
2023/06/05 06:05:04;;;;;;;4.93;4.35;;;;;;;;;;5084191;28;20346;-77
2023/06/05 06:07:30;;;;;;;4.80;4.40;;;;;;;;;;5085410;28;20047;-77
2023/06/05 06:09:55;;;;;;;4.47;4.07;;;;;;;;;;5084603;28;20427;-77
2023/06/05 06:12:21;;;;;;;4.05;3.65;;;;;;;;;;5083904;28;20491;-76
2023/06/05 06:14:47;;;;;;;3.75;3.40;;;;;;;;;;5084724;28;20028;-77
2023/06/05 06:17:13;;;;;;;5.32;3.60;;;;;;;;;;5084645;28;20036;-76
2023/06/05 06:19:38;;;;;;;4.43;4.00;;;;;;;;;;5083516;28;20042;-78
2023/06/05 06:22:10;;;;;;;4.55;3.90;;;;;;;;;;5083764;28;20028;-76
2023/06/05 06:24:36;;;;;;;4.63;3.95;;;;;;;;;;5084255;28;20039;-77
2023/06/05 06:27:01;;;;;;;5.28;3.78;;;;;;;;;;5084714;28;20036;-76
2023/06/05 06:29:27;;;;;;;5.15;3.60;;;;;;;;;;5083714;28;20023;-77
2023/06/05 06:31:52;;;;;;;4.85;3.47;;;;;;;;;;5083825;28;20539;-78
2023/06/05 06:34:18;;;;;;;4.25;3.67;;;;;;;;;;5084486;28;20752;-76
2023/06/05 06:36:46;;;;;;;4.32;3.70;;;;;;;;;;5084307;28;20044;-77
2023/06/05 06:39:12;;;;;;;3.83;3.53;;;;;;;;;;5084087;28;20035;-77
2023/06/05 06:41:38;;;;;;;3.60;3.30;;;;;;;;;;5083303;28;20660;-77
2023/06/05 06:44:04;;;;;;;4.03;3.63;;;;;;;;;;5083369;28;20035;-77
2023/06/05 06:46:30;;;;;;;4.60;3.78;;;;;;;;;;5082389;28;20146;-77
2023/06/05 06:48:55;;;;;;;3.90;3.47;;;;;;;;;;5083235;28;20425;-77
2023/06/05 06:51:22;;;;;;;4.88;3.42;;;;;;;;;;5084249;28;20278;-77
2023/06/05 06:53:47;;;;;;;4.95;4.45;;;;;;;;;;5084321;28;20032;-75
2023/06/05 06:56:15;;;;;;;4.68;4.28;;;;;;;;;;5083232;28;20102;-77
2023/06/05 06:58:40;;;;;;;5.30;4.38;;;;;;;;;;5084537;28;20028;-77
2023/06/05 07:01:06;;;;;;;4.47;4.13;;;;;;;;;;5083005;28;20085;-78
2023/06/05 07:03:31;;;;;;;4.53;3.95;;;;;;;;;;5083302;28;20439;-76
2023/06/05 07:05:56;;;;;;;5.05;4.00;;;;;;;;;;5084433;28;20031;-78
2023/06/05 07:08:22;;;;;;;4.50;4.10;;;;;;;;;;5084391;28;20048;-77
2023/06/05 07:10:47;;;;;;;4.78;4.38;;;;;;;;;;5084313;28;20075;-76
2023/06/05 07:13:12;;;;;;;7.10;4.88;;;;;;;;;;5083986;28;20106;-76
2023/06/05 07:15:38;;;;;;;5.38;4.82;;;;;;;;;;5084072;28;20822;-76
2023/06/05 07:18:03;;;;;;;5.80;5.20;;;;;;;;;;5084121;28;20047;-76
2023/06/05 07:20:28;;;;;;;7.22;4.80;;;;;;;;;;5081980;28;20032;-76
2023/06/05 07:22:54;;;;;;;5.72;5.07;;;;;;;;;;5080870;28;20066;-77
2023/06/05 07:25:20;;;;;;;5.47;4.97;;;;;;;;;;5082796;28;20106;-76
2023/06/05 07:27:46;;;;;;;6.75;4.57;;;;;;;;;;5082859;28;20063;-76
2023/06/05 07:30:12;;;;;;;7.07;4.93;;;;;;;;;;5083971;28;20051;-77
2023/06/05 07:32:38;;;;;;;5.43;4.93;;;;;;;;;;5082465;28;20358;-75
2023/06/05 07:35:03;;;;;;;6.30;4.75;;;;;;;;;;5082112;28;20024;-76
2023/06/05 07:37:29;;;;;;;4.75;4.25;;;;;;;;;;5083246;28;20028;-76
2023/06/05 07:39:54;;;;;;;5.00;4.43;;;;;;;;;;5082823;28;20103;-75
2023/06/05 07:42:19;;;;;;;5.50;4.57;;;;;;;;;;5083187;28;20050;-75
2023/06/05 07:44:45;;;;;;;4.85;4.35;;;;;;;;;;5082743;28;20047;-77
2023/06/05 07:47:10;;;;;;;5.20;4.70;;;;;;;;;;5083449;28;20040;-77
2023/06/05 07:49:35;;;;;;;5.03;4.43;;;;;;;;;;5082792;28;20351;-76
2023/06/05 07:52:01;;;;;;;4.90;4.50;;;;;;;;;;5108063;27;20120;-76
2023/06/05 07:54:26;;;;;;;7.60;4.78;;;;;;;;;;5083348;28;20370;-75
2023/06/05 07:56:52;;;;;;;5.07;4.43;;;;;;;;;;5083109;28;20051;-75
2023/06/05 07:59:24;;;;;;;5.10;4.32;;;;;;;;;;5082377;28;20070;-75
2023/06/05 08:01:49;;;;;;;5.00;4.45;;;;;;;;;;5082049;28;20035;-76
2023/06/05 08:04:15;;;;;;;4.45;4.05;;;;;;;;;;5083695;28;20331;-77
2023/06/05 08:06:41;;;;;;;7.18;4.38;;;;;;;;;;5082245;28;20024;-77
2023/06/05 08:09:10;;;;;;;7.38;4.15;;;;;;;;;;5083418;28;20035;-76
2023/06/05 08:11:37;;;;;;;5.07;4.68;;;;;;;;;;5082527;28;20058;-77
2023/06/05 08:14:03;;;;;;;5.10;4.57;;;;;;;;;;5082670;28;20035;-77
2023/06/05 08:16:29;;;;;;;5.18;4.65;;;;;;;;;;5068259;28;20115;-78
2023/06/05 08:18:54;;;;;;;5.72;4.47;;;;;;;;;;5068450;28;20095;-76
2023/06/05 08:21:20;;;;;;;4.75;4.10;;;;;;;;;;5068569;28;20043;-77
2023/06/05 08:23:45;;;;;;;6.32;4.28;;;;;;;;;;5079355;28;20127;-75
2023/06/05 08:26:11;;;;;;;5.18;4.78;;;;;;;;;;5083015;28;20032;-76
2023/06/05 08:28:42;;;;;;;5.13;4.65;;;;;;;;;;5081885;28;20093;-75
2023/06/05 08:31:08;;;;;;;5.95;4.75;;;;;;;;;;5067674;28;20024;-76
2023/06/05 08:33:34;;;;;;;6.90;4.10;;;;;;;;;;5067105;28;20031;-76
2023/06/05 08:35:59;;;;;;;5.00;4.65;;;;;;;;;;5066973;28;20118;-75
2023/06/05 08:38:24;;;;;;;8.68;4.32;;;;;;;;;;5067286;28;20028;-74
2023/06/05 08:40:57;;;;;;;6.10;4.07;;;;;;;;;;5067602;28;20028;-75
2023/06/05 08:43:22;;;;;;;5.00;4.60;;;;;;;;;;5068239;28;20038;-76
2023/06/05 08:45:50;;;;;;;5.43;4.88;;;;;;;;;;5067848;28;20734;-77
2023/06/05 08:48:17;;;;;;;5.18;3.92;;;;;;;;;;5068524;28;20035;-76
2023/06/05 08:50:44;;;;;;;7.43;4.35;;;;;;;;;;5067961;28;20035;-76
2023/06/05 08:53:12;;;;;;;4.68;4.28;;;;;;;;;;5067842;28;20024;-76
2023/06/05 08:55:38;;;;;;;7.10;4.07;;;;;;;;;;5067861;28;20351;-75
2023/06/05 08:58:04;;;;;;;4.95;4.40;;;;;;;;;;5068308;28;20101;-75
2023/06/05 09:00:29;;;;;;;5.35;4.05;;;;;;;;;;5068300;28;20024;-75
2023/06/05 09:02:56;;;;;;;4.55;4.15;;;;;;;;;;5068704;28;20040;-76
2023/06/05 09:05:21;;;;;;;4.28;3.88;;;;;;;;;;5071904;28;20044;-76
2023/06/05 09:07:47;;;;;;;4.78;3.88;;;;;;;;;;5072575;28;20112;-76
2023/06/05 09:10:22;;;;;;;3.78;3.47;;;;;;;;;;5070553;28;21054;-76
2023/06/05 09:12:57;;;;;;;3.65;3.30;;;;;;;;;;5071454;28;20074;-77
2023/06/05 09:15:33;;;;;;;6.55;3.85;;;;;;;;;;5070954;28;20023;-75
2023/06/05 09:18:12;;;;;;;3.80;3.40;;;;;;;;;;5071971;28;20099;-76
2023/06/05 09:20:38;;;;;;;3.47;3.17;;;;;;;;;;5071002;28;20024;-77
2023/06/05 09:23:06;;;;;;;3.47;3.17;;;;;;;;;;5071809;28;20165;-77
2023/06/05 09:25:44;;;;;;;4.03;3.70;;;;;;;;;;5070082;28;20032;-76
2023/06/05 09:28:10;;;;;;;4.10;3.60;;;;;;;;;;5070480;28;20040;-76
2023/06/05 09:30:52;;;;;;;3.33;3.03;;;;;;;;;;5071308;28;20112;-74
2023/06/05 09:33:19;;;;;;;3.95;3.45;;;;;;;;;;5072014;28;20027;-77
2023/06/05 09:35:44;;;;;;;3.33;3.10;;;;;;;;;;5071783;28;20016;-77
2023/06/05 09:38:26;;;;;;;3.92;3.63;;;;;;;;;;5071186;28;20382;-76
2023/06/05 09:40:52;;;;;;;6.10;3.30;;;;;;;;;;5070523;28;20016;-76
2023/06/05 09:43:21;;;;;;;6.45;3.28;;;;;;;;;;5069280;28;20020;-77
2023/06/05 09:45:46;;;;;;;3.80;3.40;;;;;;;;;;5071411;28;20401;-75
2023/06/05 09:48:15;;;;;;;4.95;3.33;;;;;;;;;;5070730;28;20035;-77
2023/06/05 09:50:40;;;;;;;7.63;3.65;;;;;;;;;;5070445;28;20032;-78
2023/06/05 09:53:07;;;;;;;4.05;3.50;;;;;;;;;;5069467;28;20036;-76
2023/06/05 09:55:32;;;;;;;4.40;4.00;;;;;;;;;;5070708;28;20015;-75
2023/06/05 09:57:59;;;;;;;3.72;3.40;;;;;;;;;;5068536;28;20498;-77
2023/06/05 10:00:25;;;;;;;7.43;3.83;;;;;;;;;;5069984;28;20028;-79
2023/06/05 10:02:51;;;;;;;3.47;3.08;;;;;;;;;;5069628;28;20030;-76
2023/06/05 10:05:17;;;;;;;4.68;3.40;;;;;;;;;;5070993;28;20053;-77
2023/06/05 10:07:43;;;;;;;3.55;3.10;;;;;;;;;;5070827;28;20023;-78
2023/06/05 10:10:09;;;;;;;4.07;3.55;;;;;;;;;;5071686;28;20028;-76
2023/06/05 10:12:35;;;;;;;4.10;3.53;;;;;;;;;;5070823;28;20161;-77
2023/06/05 10:15:01;;;;;;;3.42;3.13;;;;;;;;;;5070724;28;20098;-77
2023/06/05 10:17:27;;;;;;;4.57;3.47;;;;;;;;;;5071101;28;20046;-76
2023/06/05 10:19:53;;;;;;;3.65;3.35;;;;;;;;;;5070899;28;20024;-76
2023/06/05 10:22:18;;;;;;;3.88;3.30;;;;;;;;;;5071250;28;20035;-77
2023/06/05 10:24:46;;;;;;;3.55;3.30;;;;;;;;;;5070870;28;20024;-78
2023/06/05 10:27:30;;;;;;;3.53;3.33;;;;;;;;;;5070272;28;20062;-76
2023/06/05 10:30:16;;;;;;;3.70;3.38;;;;;;;;;;5068470;28;20020;-76
2023/06/05 10:33:01;;;;;;;3.92;3.28;;;;;;;;;;5070431;28;20032;-77
2023/06/05 10:35:27;;;;;;;3.60;3.20;;;;;;;;;;5071008;28;20039;-76
2023/06/05 10:37:53;;;;;;;6.97;3.10;;;;;;;;;;5069466;28;20038;-77
2023/06/05 10:40:18;;;;;;;3.75;2.75;;;;;;;;;;5069358;28;20170;-77
2023/06/05 10:42:44;;;;;;;3.38;2.95;;;;;;;;;;5069207;28;20331;-77
2023/06/05 10:45:09;;;;;;;3.45;3.17;;;;;;;;;;5070248;28;20387;-78
2023/06/05 10:47:35;;;;;;;3.35;3.05;;;;;;;;;;5069883;28;20040;-78
2023/06/05 10:50:16;;;;;;;3.63;2.80;;;;;;;;;;5070296;28;20422;-76
2023/06/05 10:52:42;;;;;;;5.22;3.25;;;;;;;;;;5070027;28;20035;-77
2023/06/05 10:55:07;;;;;;;4.53;3.25;;;;;;;;;;5082701;28;20024;-78
2023/06/05 10:57:56;;;;;;;3.05;2.78;;;;;;;;;;5077710;28;20051;-75
2023/06/05 11:00:22;;;;;;;4.70;3.17;;;;;;;;;;5061144;28;20111;-76
2023/06/05 11:02:48;;;;;;;3.85;3.28;;;;;;;;;;5069699;28;20024;-76
2023/06/05 11:05:14;;;;;;;3.70;3.05;;;;;;;;;;5074989;28;20028;-76
2023/06/05 11:07:40;;;;;;;3.08;2.78;;;;;;;;;;5068933;28;20039;-76
2023/06/05 11:10:25;;;;;;;3.35;3.08;;;;;;;;;;5082337;28;20110;-79
2023/06/05 11:12:51;;;;;;;3.35;2.97;;;;;;;;;;5083608;28;20036;-78
2023/06/05 11:15:34;;;;;;;3.65;3.17;;;;;;;;;;5083827;28;20016;-77
2023/06/05 11:18:19;;;;;;;4.80;3.38;;;;;;;;;;5081551;28;20077;-75
2023/06/05 11:20:44;;;;;;;4.20;3.13;;;;;;;;;;5074115;28;20078;-78
2023/06/05 11:23:11;;;;;;;3.58;3.28;;;;;;;;;;5083419;28;20418;-79
2023/06/05 11:25:36;;;;;;;5.03;3.53;;;;;;;;;;5082253;28;20027;-76
2023/06/05 11:28:04;;;;;;;6.50;3.28;;;;;;;;;;5082814;28;20123;-74
2023/06/05 11:30:33;;;;;;;3.30;3.00;;;;;;;;;;5082556;28;20085;-79
2023/06/05 11:33:08;;;;;;;3.88;3.50;;;;;;;;;;5081760;28;20024;-81
2023/06/05 11:35:34;;;;;;;3.97;3.67;;;;;;;;;;5082037;28;20024;-75
2023/06/05 11:38:08;;;;;;;4.40;3.40;;;;;;;;;;5083586;28;20028;-76
2023/06/05 11:40:35;;;;;;;9.18;3.70;;;;;;;;;;5082836;28;20045;-77
2023/06/05 11:43:06;;;;;;;3.35;3.15;;;;;;;;;;5081976;28;20404;-79
2023/06/05 11:45:36;;;;;;;4.53;3.50;;;;;;;;;;5081167;28;20385;-77
2023/06/05 11:48:08;;;;;;;4.40;3.47;;;;;;;;;;5082116;28;20336;-77
2023/06/05 11:50:33;;;;;;;4.18;3.15;;;;;;;;;;5082196;28;20028;-77
2023/06/05 11:53:05;;;;;;;3.88;3.53;;;;;;;;;;5080550;28;20518;-77
2023/06/05 11:55:43;;;;;;;3.13;2.83;;;;;;;;;;5081611;28;20120;-79
2023/06/05 11:58:08;;;;;;;3.47;3.20;;;;;;;;;;5082013;28;20137;-77
2023/06/05 12:00:34;;;;;;;5.50;3.50;;;;;;;;;;5082770;28;20107;-78
2023/06/05 12:02:59;;;;;;;3.95;3.50;;;;;;;;;;5082242;28;20442;-78
2023/06/05 12:05:24;;;;;;;3.88;3.53;;;;;;;;;;5082448;28;20099;-78
2023/06/05 12:07:50;;;;;;;3.72;3.13;;;;;;;;;;5081388;28;20085;-77
2023/06/05 12:10:16;;;;;;;5.15;3.60;;;;;;;;;;5083270;28;20016;-77
2023/06/05 12:12:51;;;;;;;3.42;3.13;;;;;;;;;;5081661;28;20034;-77
2023/06/05 12:15:17;;;;;;;4.10;3.70;;;;;;;;;;5083074;28;20024;-79
2023/06/05 12:18:00;;;;;;;3.30;3.08;;;;;;;;;;5081067;28;20032;-76
2023/06/05 12:20:38;;;;;;;5.28;3.22;;;;;;;;;;5081038;28;20366;-78
2023/06/05 12:23:03;;;;;;;3.30;3.00;;;;;;;;;;5082999;28;20016;-76
2023/06/05 12:25:29;;;;;;;3.47;3.17;;;;;;;;;;5081781;28;20026;-78
2023/06/05 12:27:55;;;;;;;3.60;3.30;;;;;;;;;;5081665;28;20032;-78
2023/06/05 12:30:20;;;;;;;3.38;3.08;;;;;;;;;;5081931;28;20032;-78
2023/06/05 12:32:48;;;;;;;5.03;2.95;;;;;;;;;;5081703;28;20050;-79
2023/06/05 12:35:20;;;;;;;4.97;3.20;;;;;;;;;;5080760;28;20028;-78
2023/06/05 12:37:47;;;;;;;4.00;3.28;;;;;;;;;;5081169;28;20020;-79
2023/06/05 12:40:13;;;;;;;3.88;3.40;;;;;;;;;;5080658;28;20035;-75
2023/06/05 12:42:40;;;;;;;3.78;3.33;;;;;;;;;;5081659;28;20028;-76
2023/06/05 12:45:06;;;;;;;4.15;3.70;;;;;;;;;;5081237;28;20091;-79
2023/06/05 12:47:31;;;;;;;7.10;3.60;;;;;;;;;;5080139;28;20593;-77
2023/06/05 12:49:57;;;;;;;3.75;3.35;;;;;;;;;;5080624;28;20987;-81
2023/06/05 12:52:25;;;;;;;3.58;3.30;;;;;;;;;;5081368;28;20020;-77
2023/06/05 12:54:55;;;;;;;3.95;3.30;;;;;;;;;;5081777;28;20020;-78
2023/06/05 12:57:21;;;;;;;3.53;3.17;;;;;;;;;;5082442;28;20803;-77
2023/06/05 12:59:47;;;;;;;3.80;3.35;;;;;;;;;;5081263;28;20084;-78
2023/06/05 13:02:13;;;;;;;3.60;3.30;;;;;;;;;;5081952;28;20180;-78
2023/06/05 13:04:39;;;;;;;4.22;3.47;;;;;;;;;;5081511;28;20028;-76
2023/06/05 13:07:05;;;;;;;4.90;3.47;;;;;;;;;;5081251;28;20020;-77
2023/06/05 13:09:31;;;;;;;3.50;3.20;;;;;;;;;;5081414;28;20028;-77
2023/06/05 13:11:59;;;;;;;4.05;3.45;;;;;;;;;;5080988;28;20452;-77
2023/06/05 13:14:24;;;;;;;4.40;3.63;;;;;;;;;;5081366;28;20024;-78
2023/06/05 13:16:50;;;;;;;3.85;3.30;;;;;;;;;;5080360;28;20032;-76
2023/06/05 13:19:15;;;;;;;4.00;3.60;;;;;;;;;;5081168;28;20055;-78
2023/06/05 13:21:40;;;;;;;3.30;3.05;;;;;;;;;;5080666;28;20163;-78
2023/06/05 13:24:06;;;;;;;3.75;3.13;;;;;;;;;;5067968;28;20032;-81
2023/06/05 13:26:31;;;;;;;3.83;3.30;;;;;;;;;;5069647;28;20359;-79
2023/06/05 13:28:56;;;;;;;3.63;3.33;;;;;;;;;;5069430;28;20449;-79
2023/06/05 13:31:22;;;;;;;7.78;3.38;;;;;;;;;;5078150;28;20032;-82
2023/06/05 13:33:47;;;;;;;3.45;3.15;;;;;;;;;;5069177;28;20099;-79
2023/06/05 13:36:13;;;;;;;3.85;3.45;;;;;;;;;;5073529;28;20020;-79
2023/06/05 13:38:38;;;;;;;4.22;3.63;;;;;;;;;;5081599;28;20024;-82
2023/06/05 13:41:04;;;;;;;5.78;3.72;;;;;;;;;;5081756;28;20107;-78
2023/06/05 13:43:29;;;;;;;4.68;4.13;;;;;;;;;;5072965;28;20059;-77
2023/06/05 13:45:55;;;;;;;5.38;3.53;;;;;;;;;;5068735;28;20016;-76
2023/06/05 13:48:20;;;;;;;3.75;3.45;;;;;;;;;;5066665;28;20028;-77
2023/06/05 13:50:45;;;;;;;5.60;3.75;;;;;;;;;;5069335;28;20483;-77
2023/06/05 13:53:11;;;;;;;5.00;3.92;;;;;;;;;;5070484;28;20028;-76
2023/06/05 13:55:36;;;;;;;5.13;3.90;;;;;;;;;;5068550;28;20028;-75
2023/06/05 13:58:02;;;;;;;3.97;3.55;;;;;;;;;;5070730;28;20576;-78
2023/06/05 14:00:30;;;;;;;4.93;4.32;;;;;;;;;;5071097;28;20027;-77
2023/06/05 14:02:56;;;;;;;4.15;3.85;;;;;;;;;;5077591;28;20040;-78
2023/06/05 14:05:21;;;;;;;4.35;3.80;;;;;;;;;;5084276;28;20040;-78
2023/06/05 14:07:49;;;;;;;4.88;4.32;;;;;;;;;;5084729;28;20039;-78
2023/06/05 14:10:14;;;;;;;6.18;4.50;;;;;;;;;;5075218;28;20343;-79
2023/06/05 14:12:40;;;;;;;4.85;4.43;;;;;;;;;;5079946;28;20469;-79
2023/06/05 14:15:05;;;;;;;5.65;4.00;;;;;;;;;;5085397;28;20169;-78
2023/06/05 14:17:31;;;;;;;5.25;4.75;;;;;;;;;;5084187;28;20027;-79
2023/06/05 14:19:56;;;;;;;4.43;4.07;;;;;;;;;;5074581;28;20549;-77
2023/06/05 14:22:21;;;;;;;7.15;4.65;;;;;;;;;;5070992;28;20028;-78
2023/06/05 14:24:47;;;;;;;5.32;4.40;;;;;;;;;;5081779;28;20032;-77
2023/06/05 14:27:13;;;;;;;5.75;4.82;;;;;;;;;;5082337;28;20039;-77
2023/06/05 14:29:38;;;;;;;6.90;4.47;;;;;;;;;;5083210;28;20032;-78
2023/06/05 14:32:04;;;;;;;7.35;4.90;;;;;;;;;;5083448;28;20672;-76
2023/06/05 14:34:30;;;;;;;6.88;4.78;;;;;;;;;;5081034;28;20020;-79
2023/06/05 14:36:55;;;;;;;5.20;4.78;;;;;;;;;;5084524;28;20024;-78
2023/06/05 14:39:21;;;;;;;7.88;4.85;;;;;;;;;;5082729;28;20024;-80